AGCS0XC
HFDTE081202
HFFXA100
HFPLTPILOT:L SCHMIDT
HFGTYGLIDERTYPE:DISCUS 2
HOGIDGLIDERID:
HFDTM100GPSDATUM:WGS84
HFRFWFIRMWAREVERSION:3.6
HFRHWHARDWAREVERSION:3.3
HFFTYFR TYPE:GARRECHT INGENIEURGESELLSCHAFT,VOLKSLOGGER 1.0
I023638FXA3941ENL
LCONV-VER:4.24
C081202101621000000000101
C4959067N01138316EBAYRT
C4959067N01138316EBAYRT
C5008250N01147666EZELLHD
C4959067N01138316EBAYRT
C0000000N00000000E
B1016214959131N01138690EV0048200000500002
B1016334959131N01138690EV0048200000500010
B1016455008375N01147946EA0048200570033012
B1016575008376N01147945EA0048200570033004
B1017095008375N01147945EA0048200570000004
B1017215008375N01147945EA0048200570000022
B1017335008375N01147945EA0048500570000008
B1017455008375N01147945EA0048200570000010
B1017575008375N01147945EA0048200570000014
B1018095008375N01147945EA0048200570000022
B1018215008375N01147945EA0048200570000012
B1018335008375N01147945EA0048200570000010
B1018455008375N01147945EA0048500570000002
B1018575008375N01147945EA0048500570000004
B1019095008375N01147945EA0048200570000006
B1019215008375N01147945EA0048000570000010
B1019335008375N01147945EA0048200570000022
B1019455008375N01147945EA0048200570000018
B1019575008375N01147945EA0048200570000006
B1020095008375N01147944EA0048500570000006
B1020215008375N01147944EA0048500580000010
B1020335008375N01147944EA0048500580000008
B1020455008375N01147944EA0048200580000012
B1020575008374N01147945EA0048200580000004
B1021095008374N01147945EA0048200580000004
B1021215008375N01147945EA0048200580000010
B1021335008374N01147944EA0048200580000012
B1021455008374N01147944EA0048200580000010
B1021575008374N01147943EA0048200580000012
B1022095008374N01147943EA0048200580000018
B1022215008374N01147942EA0048200580000006
B1022335008374N01147942EA0048200580000004
B1022455008374N01147943EA0048200580000002
B1022575008373N01147943EA0048200580000008
B1023095008373N01147942EA0048200580000008
B1023215008373N01147942EA0048200580000006
B1023335008373N01147942EA0048200580000006
B1023455008373N01147943EA0048200580000004
B1023575008373N01147943EA0048200580000016
B1024095008373N01147943EA0048200580000006
B1024215008374N01147943EA0048200580000008
B1024335008374N01147944EA0048200580000002
B1024455008374N01147944EA0048200580000008
B1024575008374N01147943EA0048200580000006
B1025095008374N01147943EA0048200580000008
B1025215008374N01147943EA0048500580000006
B1025335008374N01147943EA0048500580000014
B1025455008373N01147943EA0048500580000010
B1025575008373N01147943EA0048200580000004
B1026095008373N01147943EA0048200580000006
B1026215008373N01147943EA0048500580000006
B1026335008373N01147943EA0048500580000006
B1026455008373N01147943EA0048500580000006
B1026575008373N01147943EA0048500580000004
B1027095008373N01147944EA0048500580000002
B1027215008373N01147943EA0048500580000006
B1027335008373N01147943EA0048500580000010
B1027455008373N01147943EA0048500580000008
B1027585008373N01147944EA0048500580000006
B1028095008373N01147944EA0048500580000010
B1028215008373N01147943EA0048500580000008
B1028335008373N01147943EA0048500580000006
B1028455008373N01147944EA0048500580000012
B1028575008373N01147944EA0048700580000004
B1029095008373N01147943EA0048500580000006
B1029215008373N01147943EA0048500580000004
B1029335008373N01147944EA0048700580033010
B1029455008373N01147944EA0048500580033004
B1029575008373N01147944EA0048700580033010
B1030095008373N01147944EA0048500580033002
B1030215008373N01147944EA0048500580033002
B1030335008373N01147945EA0048500580000002
B1030455008373N01147944EA0048500580000006
B1030575008373N01147944EA0048500580000008
B1031095008373N01147944EA0048500580033002
B1031215008374N01147944EA0048500580033002
B1031335008373N01147944EA0048500580033000
B1031455008373N01147944EA0048200580033004
B1031575008374N01147945EA0048200580033002
B1032095008374N01147944EA0048200580033012
B1032215008374N01147945EA0048500580033036
B1032335008374N01147945EA0048500580033006
B1032455008373N01147944EA0048500580000004
B1032575008373N01147944EA0048200580000004
B1033095008373N01147944EA0048200580000000
B1033215008373N01147943EA0048200580000002
B1033335008374N01147944EA0048200580000000
B1033455008374N01147943EA0048200580000002
B1033575008374N01147944EA0048500580000004
B1034095008373N01147943EA0048500580000002
B1034215008373N01147943EA0048200580000002
B1034335008373N01147943EA0048500580000002
B1034455008373N01147943EA0048500580000002
B1034575008373N01147943EA0048500580000002
B1035095008373N01147943EA0048200580000014
B1035215008374N01147943EA0048500580000004
B1035335008374N01147943EA0048500580000004
B1035455008374N01147943EA0048200580000004
B1035575008374N01147944EA0048200580000002
B1036095008374N01147943EA0048200580000002
B1036215008374N01147943EA0048200580000006
B1036335008374N01147944EA0048200580000010
B1036455008374N01147944EA0048200580000002
B1036575008374N01147944EA0048200580000004
B1037095008374N01147944EA0048200580000008
B1037215008374N01147944EA0048500580000008
B1037335008374N01147944EA0048500580000004
B1037455008374N01147944EA0048500580000002
B1037575008374N01147944EA0048500580000014
B1038095008374N01147944EA0048500580000008
B1038215008374N01147944EA0048500580000006
B1038335008374N01147944EA0048500580000002
B1038455008374N01147944EA0048700580000002
B1038575008375N01147944EA0048500580000004
B1039095008374N01147944EA0048500580000006
B1039215008374N01147944EA0048500580000000
B1039335008374N01147944EA0048500580000010
B1039455008374N01147944EA0048500580000004
B1039575008374N01147943EA0048500580000006
B1040095008374N01147943EA0048500580000006
B1040215008374N01147944EA0048500580000008
B1040335008374N01147944EA0048500580000000
B1040455008375N01147944EA0048500580000002
B1040575008375N01147944EA0048500580000002
B1041095008375N01147944EA0048500580000002
B1041215008375N01147944EA0048500580000008
B1041335008375N01147945EA0048500580000008
B1041455008375N01147945EA0048500580000010
B1041575008375N01147945EA0048500580000018
B1042095008375N01147945EA0048500580000008
B1042215008375N01147945EA0048500580000004
B1042335008375N01147945EA0048500580000014
B1042455008375N01147944EA0048500580000016
B1042575008375N01147945EA0048700580033030
B1043095008375N01147944EA0048700580000008
B1043215008375N01147945EA0048500580000014
B1043335008375N01147945EA0048500580000008
B1043455008376N01147945EA0048500580000004
B1043575008376N01147945EA0048500580000004
B1044095008375N01147945EA0048500580000012
B1044215008375N01147946EA0048200580000002
B1044335008375N01147945EA0048500580000004
B1044455008375N01147945EA0048200580000006
B1044575008376N01147946EA0048200580000008
B1045095008376N01147946EA0048500580000012
B1045215008376N01147946EA0048500580000012
B1045335008376N01147947EA0048500580000010
B1045455008375N01147947EA0048500580000006
B1045575008375N01147947EA0048200570000006
B1046095008375N01147947EA0048500570000004
B1046215008375N01147947EA0048500570000002
B1046335008375N01147947EA0048500570000012
B1046455008375N01147946EA0048500580000012
B1046575008375N01147946EA0048500580000002
B1047095008375N01147946EA0048500580000008
B1047215008375N01147945EA0048500580000004
B1047335008375N01147945EA0048200580000010
B1047455008375N01147945EA0048500580000014
B1047575008374N01147945EA0048200580000008
B1048095008374N01147945EA0048500580000016
B1048215008374N01147945EA0048500580000008
B1048335008374N01147944EA0048500580000004
B1048455008374N01147945EA0048500580033006
B1048575008375N01147947EA0048500580033006
B1049095008375N01147947EA0048500580033002
B1049215008375N01147947EA0048500580033004
B1049335008375N01147946EA0048500580033006
B1049455008375N01147947EA0048500580033006
B1049575008375N01147947EA0048500580033016
B1050095008375N01147947EA0048500580033008
B1050215008375N01147947EA0048500580033004
B1050335008375N01147946EA0048500580033008
B1050455008375N01147946EA0048500580033004
B1050575008375N01147946EA0048500580033006
B1051095008375N01147947EA0048500580033012
B1051215008375N01147946EA0048700580033004
B1051335008375N01147947EA0048700580033002
B1051455008375N01147946EA0048500580033002
B1051575008375N01147946EA0048700580033008
B1052095008375N01147946EA0048500580033004
B1052215008375N01147946EA0048700580033002
B1052335008375N01147946EA0048700580033002
B1052455008375N01147946EA0048500580033006
B1052575008375N01147946EA0048700580033004
B1053095008375N01147946EA0048700580033002
B1053215008375N01147946EA0048700580033002
B1053335008375N01147946EA0048500580033002
B1053455008375N01147946EA0048700580033004
B1053575008375N01147946EA0048700580033012
B1054095008375N01147946EA0048500580033004
B1054215008375N01147946EA0048500580033004
B1054335008375N01147946EA0048500580033002
B1054455008375N01147946EA0048700580033002
B1054575008375N01147946EA0048500580033012
B1055095008375N01147946EA0048700580033010
B1055215008375N01147946EA0048700580033008
B1055335008375N01147946EA0048700580000002
B1055455008375N01147945EA0048500580000006
B1055575008375N01147945EA0048500580000002
B1056095008375N01147945EA0048500580000004
B1056215008375N01147944EA0048700580000008
B1056335008375N01147944EA0048500580000006
B1056455008375N01147945EA0048700580000010
B1056575008375N01147945EA0048500580000004
B1057095008375N01147945EA0048500580000006
B1057215008375N01147945EA0048500580000006
B1057335008375N01147945EA0048500580000006
B1057455008375N01147945EA0048500580000004
B1057575008375N01147945EA0048700580033010
B1058095008375N01147945EA0048500580033006
B1058215008375N01147945EA0048500580000002
B1058335008375N01147945EA0048500580033006
B1058455008375N01147945EA0048500580033008
B1058575008375N01147945EA0048500580000006
B1059095008375N01147945EA0048500580000020
B1059215008375N01147945EA0048500580000014
B1059335008375N01147945EA0048500580033012
B1059455008374N01147946EA0048500580033008
B1059575008375N01147945EA0048700580000008
B1100095008374N01147946EA0048500580000002
B1100215008375N01147945EA0048500580000002
B1100335008375N01147945EA0048500580000002
B1100455008375N01147945EA0048700580000006
B1100575008375N01147945EA0048500580000004
B1101095008375N01147945EA0048700580000004
B1101215008375N01147945EA0048700580000002
B1101335008375N01147946EA0048500580000004
B1101455008375N01147946EA0048500580000012
B1101575008375N01147946EA0048700580000022
B1102095008375N01147945EA0048700580000008
B1102215008375N01147945EA0048500580000008
B1102335008375N01147945EA0048500580000012
B1102455008375N01147946EA0048500580000004
B1102575008375N01147945EA0048500580033008
B1103095008375N01147945EA0048700580000014
B1103215008375N01147945EA0048500580000006
B1103335008375N01147946EA0048500580033010
B1103455008375N01147946EA0048200580033008
B1103575008375N01147945EA0048500580033006
B1104095008375N01147946EA0048500580033006
B1104215008375N01147946EA0048500580033006
B1104335008375N01147945EA0048500580033002
B1104455008375N01147946EA0048700580033006
B1104575008375N01147945EA0048700580033008
B1105095008375N01147945EA0048700580033012
B1105215008375N01147945EA0048700580033012
B1105335008375N01147945EA0048500580033006
B1105455008375N01147945EA0048700580033008
B1105575008375N01147945EA0048700580033004
B1106095008375N01147945EA0048700580033004
B1106215008375N01147945EA0048700580033008
B1106335008375N01147945EA0048900580033010
B1106455008375N01147945EA0048700580033006
B1106575008375N01147944EA0048700580000004
B1107095008375N01147945EA0048700580000006
B1107215008375N01147945EA0048700580000006
B1107335008375N01147945EA0048700580000004
B1107455008375N01147945EA0048700580000004
B1107575008375N01147945EA0048700580000006
B1108095008375N01147945EA0048500580000002
B1108215008375N01147945EA0048700580000004
B1108335008375N01147945EA0048700580000004
B1108455008375N01147945EA0048700580000006
B1108575008375N01147945EA0048700580000006
B1109095008376N01147945EA0048700580033006
B1109215008376N01147945EA0048700580000004
B1109335008376N01147944EA0048700580000006
B1109455008376N01147944EA0048700580000004
B1109575008375N01147944EA0048700580000006
B1110095008375N01147944EA0048700580000006
B1110215008375N01147943EA0048700580000002
B1110335008375N01147943EA0048700580000004
B1110455008375N01147943EA0048700580000006
B1110575008375N01147943EA0048700580033008
B1111095008375N01147943EA0048700580000018
B1111215008375N01147943EA0048700580000006
B1111335008375N01147943EA0048500580033004
B1111455008375N01147943EA0048700580033010
B1111575008375N01147944EA0048700580033004
B1112095008375N01147944EA0048700580033002
B1112215008375N01147945EA0048700580000002
B1112335008375N01147945EA0048700580033012
B1112455008375N01147944EA0048700580033014
B1112575008375N01147944EA0048700580033010
B1113095008375N01147944EA0048700580000004
B1113215008375N01147944EA0048700580000002
B1113335008375N01147945EA0048700580000006
B1113455008375N01147944EA0048700580000014
B1113575008375N01147945EA0048700580000010
B1114095008375N01147944EA0048700580000014
B1114215008375N01147944EA0048500580000010
B1114335008375N01147944EA0048500580000008
B1114455008375N01147944EA0048500580000004
B1114575008375N01147944EA0048700580000008
B1115095008375N01147944EA0048700580033008
B1115215008375N01147944EA0048700580000006
B1115335008375N01147944EA0048700580000010
B1115455008375N01147944EA0048700580000034
B1115575008375N01147944EA0048700580000016
B1116095008375N01147944EA0048700580000012
B1116215008375N01147945EA0048700580000008
B1116335008375N01147945EA0048700580033024
B1116455008375N01147945EA0048700580033022
B1116575008375N01147945EA0048700580033030
B1117095008375N01147945EA0048700580033016
B1117215008375N01147946EA0048700580033010
B1117335008375N01147945EA0048700580033008
B1117455008375N01147945EA0048700580033004
B1117575008375N01147945EA0048700580033010
B1118095008375N01147945EA0048500580033004
B1118215008375N01147945EA0048500580033004
B1118335008375N01147945EA0048500580033004
B1118455008375N01147945EA0048700580033004
B1118575008374N01147944EA0048700580033006
B1119095008375N01147945EA0048700580033014
B1119215008375N01147945EA0048700580033024
B1119335008375N01147945EA0048700580033010
B1119455008375N01147945EA0048700580033008
B1119575008375N01147945EA0048500580033008
B1120095008375N01147945EA0048700580033008
B1120215008375N01147945EA0048700580033028
B1120335008375N01147945EA0048700580033020
B1120455008375N01147945EA0048700580033014
B1120575008375N01147945EA0048700580033008
B1121095008374N01147945EA0048700580033002
B1121215008374N01147945EA0048700580033002
B1121335008374N01147945EA0048700580033008
B1121455008374N01147945EA0048500580033010
B1121575008374N01147945EA0048700580033008
B1122095008374N01147945EA0048700580033008
B1122215008374N01147945EA0048700580033008
B1122335008374N01147945EA0048700580033004
B1122455008375N01147945EA0048700580033008
B1122575008375N01147944EA0048700580033008
B1123095008375N01147944EA0048700580033004
B1123215008375N01147944EA0048700580033016
B1123335008375N01147944EA0048700580033026
B1123455008375N01147944EA0048700580033024
B1123575008375N01147944EA0048700580033012
B1124095008375N01147944EA0048700580033018
B1124215008375N01147944EA0048700580033004
B1124335008375N01147944EA0048700580033008
B1124455008375N01147944EA0048700580033010
B1124575008375N01147944EA0048700580033006
B1125095008375N01147944EA0048700580033014
B1125215008375N01147944EA0048700580033018
B1125335008375N01147944EA0048500580033012
B1125455008375N01147944EA0048700580033010
B1125575008375N01147945EA0048500580033008
B1126095008375N01147945EA0048500580033012
B1126215008375N01147945EA0048500580033012
B1126335008375N01147945EA0048700580033010
B1126455008375N01147945EA0048500580033002
B1126575008375N01147945EA0048500580033002
B1127095008375N01147945EA0048700580033006
B1127215008376N01147944EA0048500580033028
B1127335008376N01147945EA0048500580033030
B1127455008376N01147945EA0048500580033032
B1127575008376N01147945EA0048700580033018
B1128095008376N01147945EA0048700580033016
B1128215008377N01147945EA0048700580033010
B1128335008376N01147945EA0048700580033010
B1128455008376N01147945EA0048700580033010
B1128575008375N01147945EA0048500580033016
B1129095008375N01147945EA0048700580033014
B1129215008375N01147945EA0048700580033012
B1129335008374N01147944EA0048700580033010
B1129455008374N01147945EA0048700580033044
B1129575008374N01147945EA0048700580033056
B1130095008374N01147945EA0048700580033012
B1130215008374N01147945EA0048700580033012
B1130335008374N01147945EA0048700580033012
B1130455008374N01147945EA0048700580033020
B1130575008375N01147945EA0048700580033030
B1131095008374N01147945EA0048700580033028
B1131215008374N01147945EA0048700580033010
B1131335008374N01147945EA0048700580033014
B1131455008375N01147945EA0048700580033030
B1131575008375N01147945EA0048700580033020
B1132095008375N01147945EA0048700580033016
B1132215008374N01147945EA0048700580033020
B1132335008375N01147946EA0048700580033012
B1132455008375N01147946EA0048700580033012
B1132575008375N01147945EA0048700580033006
B1133095008375N01147945EA0048700580033006
B1133215008375N01147946EA0048700580033010
B1133335008375N01147946EA0048700580033010
B1133455008375N01147946EA0048700580033004
B1133575008375N01147945EA0048700580033006
B1134095008375N01147945EA0048700580033012
B1134215008375N01147945EA0048700580033010
B1134335008375N01147945EA0048700580033016
B1134455008374N01147946EA0048700580033012
B1134575008374N01147946EA0048700580033012
B1135095008374N01147945EA0048700580033038
B1135215008374N01147945EA0048700580033016
B1135335008375N01147945EA0048700580033006
B1135455008374N01147945EA0048700580033018
B1135575008374N01147946EA0048700580033012
B1136095008374N01147945EA0048700580033010
B1136215008374N01147945EA0048700580033014
B1136335008374N01147945EA0048500580033016
B1136455008374N01147945EA0048500580033028
B1136575008374N01147945EA0048700580033010
B1137095008374N01147945EA0048700580033008
B1137215008374N01147945EA0048700580033008
B1137335008374N01147945EA0048700580033006
B1137455008374N01147945EA0048700580033014
B1137575008374N01147945EA0048700580033006
B1138095008374N01147945EA0048700580033010
B1138215008374N01147945EA0048700580033026
B1138335008374N01147945EA0048900580033014
B1138455008374N01147945EA0048700580033008
B1138575008374N01147945EA0048700580033014
B1139095008374N01147945EA0048700580033010
B1139215008374N01147945EA0048700580033018
B1139335008374N01147945EA0048700580033012
B1139455008374N01147945EA0048700580033012
B1139575008374N01147945EA0048700580033012
B1140095008374N01147945EA0048700580033008
B1140215008374N01147945EA0048700580033016
B1140335008374N01147945EA0048900580033008
B1140455008374N01147945EA0048700580033004
B1140575008374N01147945EA0048700580033008
B1141095008373N01147944EA0048900580033012
B1141215008373N01147944EA0048700580033010
B1141335008373N01147944EA0048700580033082
B1141455008374N01147944EA0048700580033016
B1141575008374N01147945EA0048700580033026
B1142095008374N01147945EA0048700580033014
B1142215008374N01147944EA0048700580033010
B1142335008373N01147944EA0048700580033016
B1142455008374N01147944EA0048700580033008
B1142575008373N01147945EA0048700580033010
B1143095008374N01147945EA0048700580033020
B1143215008373N01147944EA0048700580033018
B1143335008373N01147944EA0048700580033028
B1143455008373N01147944EA0048700580033016
B1143575008373N01147944EA0048700580033032
B1144095008374N01147947EA0048700580033068
B1144215008370N01147960EA0048900580033030
B1144335008361N01147964EA0048900580033036
B1144455008357N01147965EA0048900580033018
B1144575008348N01147968EA0048900580033028
B1145095008341N01147970EA0049200580033012
B1145215008330N01147973EA0049200580033036
B1145335008314N01147977EA0049400580033020
B1145455008303N01147952EA0049400580033042
B1145575008291N01147918EA0049400580033052
B1146095008280N01147884EA0049400580033050
B1146215008265N01147842EA0049400580033044
LGCSTKF114633TAKEOFF DETECTED
B1146335008251N01147796EA0049200580033026
B1146455008237N01147755EA0049400580033022
B1146575008225N01147719EA0049400580033072
B1147095008214N01147700EA0049400580033068
B1147215008205N01147681EA0049400580033118
B1147335008197N01147665EA0049400580033080
B1147455008189N01147644EA0049400580033096
B1147575008182N01147625EA0049400580033100
B1148095008174N01147603EA0049400580033102
B1148215008170N01147576EA0049400580033134
B1148335008163N01147548EA0049400580033126
B1148455008152N01147515EA0049400580033134
B1148575008141N01147484EA0049400580033130
B1149095008131N01147457EA0049600580033090
B1149215008126N01147447EA0049400580033038
B1149335008126N01147447EA0049600590033048
B1149455008127N01147447EA0049400590033036
B1149575008127N01147447EA0049600590033052
B1150095008127N01147447EA0049600590033022
B1150215008127N01147447EA0049600590033052
B1150335008127N01147446EA0049400590033022
B1150455008127N01147446EA0049400590033010
B1150575008127N01147445EA0049400580033024
B1151095008127N01147445EA0049400590033016
B1151215008127N01147445EA0049400590033032
B1151335008127N01147445EA0049600590033046
B1151455008127N01147446EA0049600590033034
B1151575008127N01147446EA0049600590033040
B1152095008127N01147445EA0049600590033034
B1152215008126N01147446EA0049600590033088
B1152335008127N01147446EA0049600590033020
B1152455008127N01147447EA0049400590033056
B1152575008128N01147447EA0049400590033032
B1153095008128N01147447EA0049600590033038
B1153215008129N01147447EA0049600590033032
B1153335008129N01147447EA0049600590033020
B1153455008128N01147447EA0049400590033012
B1153575008129N01147446EA0049400590033032
B1154095008128N01147446EA0049600590033038
B1154215008128N01147446EA0049600590033062
B1154335008129N01147446EA0049400590033046
B1154455008129N01147446EA0049400590033054
B1154575008129N01147446EA0049400590033040
B1155095008129N01147446EA0049400590033030
B1155215008129N01147447EA0049600590033026
B1155335008129N01147446EA0049400590033016
B1155455008129N01147446EA0049400590033018
B1155575008129N01147446EA0049400590033038
B1156095008129N01147446EA0049400590033014
B1156215008128N01147446EA0049400590033030
B1156335008128N01147446EA0049600590033026
B1156455008128N01147446EA0049400590033042
B1156575008128N01147446EA0049600590033020
B1157095008128N01147446EA0049400590033018
B1157215008129N01147446EA0049400590033028
B1157335008130N01147446EA0049400590033016
B1157455008130N01147446EA0049400590033032
B1157575008130N01147446EA0049400590033024
B1158095008129N01147446EA0049400590033020
B1158215008129N01147446EA0049400590033014
B1158335008129N01147446EA0049400590033022
B1158455008129N01147446EA0049600590033024
B1158575008129N01147446EA0049600590033026
B1159095008129N01147445EA0049400590033028
B1159215008129N01147445EA0049400590033018
B1159335008129N01147446EA0049400590033016
B1159455008129N01147446EA0049400590033010
B1159575008129N01147446EA0049400590033020
B1200095008129N01147446EA0049400590033018
B1200215008129N01147447EA0049400590033026
B1200335008129N01147446EA0049400590033034
B1200455008129N01147446EA0049400590033032
B1200575008129N01147446EA0049400590033014
B1201095008129N01147446EA0049400590033016
B1201215008129N01147446EA0049600590033024
B1201335008129N01147446EA0049400590033016
B1201455008130N01147446EA0049400590033028
B1201575008130N01147446EA0049400590033038
B1202095008131N01147443EA0049400590033056
B1202215008134N01147437EA0049600590033064
B1202335008136N01147428EA0049400590033042
B1202455008136N01147428EA0049400590033116
B1202575008137N01147429EA0049400590033030
B1203095008136N01147429EA0049400590033028
B1203215008136N01147429EA0049400590033034
B1203335008135N01147429EA0049600590033024
B1203455008135N01147429EA0049600590033022
B1203575008135N01147429EA0049600590033016
B1204095008136N01147428EA0049600590033020
B1204215008135N01147429EA0049400590033030
B1204335008135N01147429EA0049400590033024
B1204455008135N01147429EA0049400590033034
B1204575008136N01147428EA0049400590033042
B1205095008136N01147428EA0049600590033028
B1205215008135N01147428EA0049400590033040
B1205335008135N01147428EA0049600590033022
B1205455008136N01147428EA0049600590033030
B1205575008136N01147428EA0049400590033024
B1206095008136N01147428EA0049600590033030
B1206215008135N01147428EA0049400590033012
B1206335008134N01147428EA0049400590033010
B1206455008134N01147428EA0049600580033004
B1206575008134N01147428EA0049600580033006
B1207095008135N01147428EA0049600580033006
B1207215008134N01147428EA0049400580033010
B1207335008134N01147428EA0049400580033012
B1207455008135N01147428EA0049400580033004
B1207575008134N01147428EA0049400580033018
B1208095008134N01147428EA0049400590033032
B1208215008134N01147428EA0049400590033030
B1208335008134N01147428EA0049400590033018
B1208455008134N01147428EA0049400580033026
B1208575008134N01147428EA0049400580033062
B1209095008134N01147428EA0049400580033038
B1209215008134N01147428EA0049400580033026
B1209335008134N01147428EA0049400580033032
B1209455008135N01147428EA0049200580033022
B1209575008136N01147428EA0049200580033046
B1210095008135N01147428EA0049200580033020
B1210215008135N01147427EA0049200580033020
B1210335008134N01147428EA0049400590033012
B1210455008134N01147428EA0049400590033058
B1210575008135N01147429EA0049200580033010
B1211095008134N01147428EA0049200590033026
B1211215008134N01147429EA0049200580033016
B1211335008135N01147429EA0049400590033008
B1211455008148N01147467EA0049400590033140
B1211575008212N01147663EA0050300590033062
B1212095008347N01147779EA0056700650033056
B1212215008506N01147800EA0062100710033044
B1212335008677N01147781EA0067100750033048
B1212455008855N01147658EA0071200790033058
B1212575009020N01147416EA0076000840033050
B1213095009130N01147076EA0080300880033050
B1213215009117N01146624EA0083000900033054
B1213335008951N01146243EA0087100940033050
B1213455008734N01146055EA0092700990033054
B1213575008521N01145924EA0096701030033056
B1214095008340N01145864EA0100601070033058
B1214215008156N01145805EA0103301100033052
B1214335008055N01145493EA0104001100033030
B1214455007981N01145087EA0096701040033086
B1214575007799N01144851EA0096901040033226
B1215095007706N01144899EA0094201010033192
B1215215007716N01145024EA0092200990033394
B1215335007732N01145136EA0090000970033214
B1215455007731N01145269EA0088100950033386
B1215575007710N01145407EA0090300970033658
B1216095007678N01145515EA0092700990033642
B1216215007619N01145596EA0095401020033714
B1216335007525N01145646EA0098401050033730
B1216455007422N01145656EA0101101070033730
B1216575007321N01145676EA0103801100033706
B1217095007226N01145657EA0107801140033730
B1217215007230N01145719EA0111001170033626
B1217335007339N01145752EA0115001210033730
B1217455007468N01145761EA0118001240033730
B1217575007567N01145791EA0120801260033730
B1218095007551N01145844EA0123301280033706
B1218215007496N01145880EA0126101310033714
B1218335007396N01145851EA0129601350033698
B1218455007275N01145716EA0133401380033698
B1218575007148N01145414EA0137701420033714
B1219095007012N01145115EA0141101460033666
B1219215006877N01144863EA0144701490033722
B1219335006737N01144655EA0147501520033730
B1219455006636N01144559EA0149801540033102
B1219575006631N01144581EA0149801540033020
B1220095006759N01144555EA0150601550033012
B1220215006941N01144308EA0150401550033012
B1220335007036N01143894EA0149601540033012
B1220455006937N01143602EA0147001520033012
B1220575006881N01143610EA0144401490033012
B1221095006865N01143642EA0142601470033016
B1221215006887N01143678EA0140601450033012
B1221335006926N01143728EA0138001430033014
B1221455007012N01143797EA0134401390033014
B1221575007122N01143878EA0131901370033018
B1222095007257N01143934EA0129301350033014
B1222215007406N01143970EA0126801320033016
B1222335007527N01144026EA0123501290033016
B1222455007555N01144131EA0121501270033020
B1222575007519N01144227EA0118201240033020
B1223095007458N01144280EA0118501240033050
B1223215007383N01144301EA0112201180033118
B1223335007277N01144368EA0113701190033458
B1223455007159N01144348EA0115501210033682
B1223575007014N01144263EA0116001220033650
B1224095006873N01144196EA0117201230033666
B1224215006744N01144144EA0118701240033650
B1224335006637N01144109EA0120501260033578
B1224455006533N01144083EA0121801270033562
B1224575006407N01144013EA0123301290033450
B1225095006308N01144000EA0125001300033498
B1225215006286N01144046EA0127101320033546
B1225335006322N01144098EA0129301340033642
B1225455006285N01144116EA0131601370033514
B1225575006181N01144042EA0134901400033626
B1226095006071N01143973EA0136501420033538
B1226215005951N01143913EA0138801440033538
B1226335005835N01143868EA0141601460033434
B1226455005714N01143810EA0143901490033538
B1226575005590N01143734EA0147001510033610
B1227095005474N01143655EA0150101550033602
B1227215005363N01143586EA0153701580033458
B1227335005261N01143491EA0155001590033050
B1227455005164N01143406EA0156601610033016
B1227575005067N01143330EA0158901630033012
B1228095004992N01143288EA0160801650033010
B1228215004929N01143264EA0162301660033010
B1228335004861N01143242EA0163101670033010
B1228455004781N01143197EA0163601680033012
B1228575004683N01143112EA0163401670033010
B1229095004615N01143083EA0163101670033014
B1229215004675N01143130EA0162301670033010
B1229335004801N01143145EA0162301660033010
B1229455004944N01143131EA0162601670033012
B1229575005099N01143101EA0163601680033012
B1230095005258N01143071EA0165001690033010
B1230215005355N01143111EA0165701700033012
B1230335005290N01143053EA0167101710033012
B1230455005257N01142691EA0167101710033010
B1230575005419N01142390EA0167101710033014
B1231095005585N01142351EA0166301700033010
B1231215005749N01142372EA0165001690033012
B1231335005921N01142400EA0163401670033012
B1231455006100N01142440EA0162301660033014
B1231575006276N01142484EA0161001650033016
B1232095006444N01142522EA0160001640033014
B1232215006611N01142543EA0158201620033018
B1232335006777N01142564EA0155801600033016
B1232455006929N01142581EA0153501580033012
B1232575007071N01142601EA0151101550033016
B1233095007197N01142625EA0149101530033012
B1233215007330N01142640EA0145201500033012
B1233335007498N01142694EA0141101450033016
B1233455007657N01142736EA0139801440033014
B1233585007794N01142770EA0138501430033014
B1234095007913N01142812EA0138001430033012
B1234215008006N01142858EA0137501420033012
B1234335008113N01142908EA0138301430033014
B1234455008202N01142930EA0139501440033010
B1234575008289N01142949EA0140301450033012
B1235095008369N01142959EA0141601460000010
B1235215008421N01142978EA0142601470033010
B1235335008337N01142893EA0143401480000010
B1235455008292N01142514EA0143601480000012
B1235575008446N01142191EA0144201490000012
B1236095008521N01142196EA0144901500033012
B1236225008526N01142224EA0145401500033012
B1236335008535N01142250EA0146501510033012
B1236455008546N01142276EA0147001520033010
B1236575008554N01142300EA0147301520033010
B1237095008563N01142332EA0147801520033014
B1237215008566N01142359EA0148001530033014
B1237335008566N01142379EA0148501530033012
B1237455008571N01142405EA0149101540033010
B1237575008556N01142416EA0149601540000012
B1238095008527N01142422EA0150101540000010
B1238225008503N01142430EA0150401540000012
B1238335008491N01142445EA0150601550000010
B1238455008482N01142461EA0151101550000010
B1238575008477N01142481EA0151401560000012
B1239095008460N01142497EA0151901560000010
B1239225008402N01142475EA0152201570000010
B1239335008334N01142438EA0152701570000008
B1239455008259N01142392EA0152701570000010
B1239575008196N01142364EA0152701570033010
B1240105008110N01142321EA0152701570033008
B1240215008032N01142283EA0152701570000010
B1240335007962N01142253EA0152401570033010
B1240455007868N01142216EA0150901560033012
B1240575007752N01142180EA0149601550000016
B1241105007628N01142138EA0148801540033012
B1241215007535N01142125EA0147501520033014
B1241345007416N01142093EA0145701510000020
B1241455007313N01142091EA0143601490033014
B1241585007196N01142109EA0141101470000016
B1242095007110N01142155EA0139301450000016
B1242225007018N01142207EA0136701420000018
B1242335006938N01142263EA0133901390000016
B1242465006873N01142313EA0131901370000016
B1242575006822N01142352EA0129101340000022
B1243095006769N01142385EA0126101320000022
B1243215006705N01142421EA0123001290000018
B1243335006628N01142464EA0119801250000018
B1243455006561N01142510EA0116501220000016
B1243575006488N01142561EA0113201190000018
B1244095006391N01142631EA0109301150000018
B1244225006293N01142685EA0105501120000018
B1244335006181N01142752EA0101601070000018
B1244455006088N01142839EA0098401050000018
B1244575005997N01142933EA0095201010000020
B1245095005910N01143072EA0091800980000022
B1245215005847N01143210EA0091300980000020
B1245335005798N01143361EA0089300960000024
B1245455005762N01143544EA0088800950000018
B1245585005756N01143709EA0088600950000024
B1246095005665N01143746EA0088100940033032
B1246215005670N01143447EA0087400940000026
B1246335005752N01143566EA0088100950000018
B1246465005778N01143706EA0088100940000020
B1246575005776N01143830EA0087400940000018
B1247105005764N01143984EA0087600940000036
B1247215005752N01144151EA0085400920000022
B1247335005642N01144110EA0084900920000020
B1247465005718N01143989EA0085200920033026
B1247575005572N01143893EA0085900920033024
B1248095005703N01143747EA0084200910033022
B1248215005717N01143931EA0083500900000020
B1248335005672N01144071EA0084900920000030
B1248455005610N01143811EA0083700900033026
B1248575005726N01143838EA0082300890033024
B1249095005778N01143998EA0082000890033024
B1249215005822N01144161EA0081300880000024
B1249345005870N01144329EA0079400870000028
B1249455005955N01144439EA0077400850033044
B1249585006099N01144570EA0073300800000498
B1250095006196N01144697EA0077400840033658
B1250215006264N01144833EA0079600860000658
B1250335006324N01144986EA0082300890000650
B1250455006304N01145147EA0083700900000594
B1250575006250N01145285EA0089800960000626
B1251105006149N01145358EA0093500990033674
B1251225006016N01145349EA0096201020000650
B1251335005896N01145333EA0099601050000682
B1251465005769N01145159EA0102101080000658
B1251575005815N01144787EA0104001100000650
B1252095005938N01144747EA0105301110033538
B1252215005815N01144613EA0108001140000578
B1252335005872N01144185EA0111201160000562
B1252455006013N01144133EA0111701170033418
B1252575005894N01144062EA0112001170033434
B1253105005899N01143566EA0113201190000426
B1253215006070N01143384EA0113501190033394
B1253335006183N01143404EA0114501200033626
B1253455006252N01143451EA0115001200000706
B1253575006314N01143499EA0115501210000690
B1254095006362N01143545EA0115701210000690
B1254225006411N01143589EA0116001210000666
B1254335006459N01143624EA0116001210000698
B1254455006517N01143664EA0116001210000698
B1254575006560N01143705EA0116001210000690
B1255095006586N01143747EA0116501220000690
B1255215006600N01143782EA0116501220000682
B1255335006610N01143823EA0116701220000706
B1255455006597N01143865EA0117701230000698
B1255585006581N01143906EA0118501240000690
B1256095006570N01143945EA0120301250000706
B1256215006560N01143977EA0121801270000714
B1256335006541N01144009EA0123001280000706
B1256455006519N01144040EA0124801290000714
B1256575006516N01144068EA0126601310000698
B1257095006519N01144098EA0128301330000714
B1257215006519N01144127EA0130101350000722
B1257345006505N01144151EA0132101370000730
B1257455006492N01144171EA0133701380000170
B1257575006474N01144189EA0133201380000022
B1258095006486N01144219EA0133201380000012
B1258215006499N01144253EA0133401380000012
B1258335006517N01144289EA0133701380000010
B1258465006537N01144326EA0134401390000012
B1258585006554N01144356EA0135401400000012
B1259095006564N01144382EA0136501410000014
B1259215006589N01144410EA0137701420000014
B1259335006615N01144429EA0139001440000010
B1259455006636N01144444EA0140001450000010
B1259575006660N01144464EA0141301460000016
B1300095006696N01144491EA0142101470000012
B1300215006732N01144528EA0143601480000016
B1300335006755N01144549EA0145201490000020
B1300465006791N01144562EA0146501510000010
B1300575006803N01144578EA0148001520000010
B1301095006793N01144574EA0149601540000008
B1301215006767N01144566EA0150901550000010
B1301335006732N01144552EA0151901560000010
B1301455006704N01144553EA0153201570000010
B1301585006679N01144560EA0154801590000014
B1302095006658N01144566EA0156301600000008
B1302215006658N01144577EA0158201620000010
B1302335006747N01144557EA0159501630000010
B1302455006920N01144338EA0160001640000010
B1302575007070N01144214EA0159201630033012
B1303095007086N01144253EA0158201620000014
B1303215007016N01144292EA0155801600000014
B1303335006950N01144363EA0157601610000018
B1303455006911N01144383EA0159501630000012
B1303585006887N01144396EA0160001640000014
B1304095006862N01144415EA0160501640000012
B1304215006846N01144443EA0161001650000012
B1304335006830N01144479EA0161501650000012
B1304455006817N01144495EA0162901670000010
B1304575006821N01144519EA0163901670000014
B1305095006831N01144548EA0164401680000010
B1305215006834N01144575EA0165201690000008
B1305335006835N01144609EA0166301700000010
B1305455006840N01144636EA0166801710000010
B1305585006831N01144659EA0167901710000010
B1306095006820N01144681EA0168101720000010
B1306215006777N01144694EA0169201730000036
B1306335006711N01144687EA0170201740000026
B1306455006622N01144657EA0171501750000012
B1306575006540N01144632EA0172901760000018
B1307095006456N01144604EA0173901770000012
B1307215006365N01144579EA0175301790000014
B1307335006285N01144562EA0176101800000010
B1307455006202N01144547EA0177101810000012
B1307575006132N01144549EA0177901810000008
B1308095006072N01144581EA0178401820000014
B1308215006039N01144640EA0179201830000010
B1308335006024N01144712EA0180301840000010
B1308455006024N01144788EA0181101840000010
B1308575006049N01144872EA0182401860000010
B1309105006114N01144942EA0183001860000010
B1309215006205N01144991EA0184101870000010
B1309335006302N01145048EA0185101880000010
B1309455006413N01145112EA0185901890000014
B1309575006514N01145179EA0187501900000014
B1310095006606N01145245EA0188901920000012
B1310215006702N01145307EA0190201930000010
B1310335006795N01145367EA0191601950000010
B1310455006885N01145424EA0193201960000012
B1310585006992N01145475EA0194601980000010
B1311095007082N01145515EA0195601990000008
B1311215007204N01145529EA0196702000000012
B1311335007209N01145565EA0197302000000014
B1311455007090N01145510EA0197802000000012
B1311575006960N01145417EA0198302010000032
B1312095006824N01145298EA0200002030000014
B1312215006688N01145161EA0201302040000012
B1312335006555N01145023EA0203502060000014
B1312455006427N01144877EA0204902080000018
B1312575006306N01144741EA0206802090000010
B1313095006192N01144606EA0207602100000010
B1313215006081N01144498EA0208702110000008
B1313335005975N01144419EA0209502120000010
B1313455005883N01144388EA0210402130000010
B1313575005806N01144395EA0211502140000010
B1314095005726N01144398EA0212302150000008
B1314215005647N01144404EA0213702160000010
B1314335005578N01144421EA0214802170000012
B1314455005566N01144502EA0215902180000010
B1314575005660N01144568EA0216702190000012
B1315095005829N01144483EA0217802200000012
B1315215005987N01144251EA0218702210000012
B1315335006151N01144155EA0219202220000012
B1315455006171N01144238EA0219802220000010
B1315575006127N01144309EA0220302230000012
B1316095006126N01144420EA0220902230000012
B1316215006172N01144530EA0221402240000012
B1316335006243N01144626EA0222502250000012
B1316455006315N01144721EA0223402260000008
B1316575006374N01144824EA0223902260000010
B1317095006450N01144919EA0225102270000010
B1317215006534N01145002EA0226202280000010
B1317335006594N01145094EA0227602300000012
B1317455006527N01145135EA0229002310000012
B1317575006422N01144901EA0229802320000012
B1318095006513N01144581EA0230702330000010
B1318215006667N01144562EA0231502330000010
B1318335006795N01144605EA0232302340000010
B1318455006915N01144657EA0233202350000010
B1318575007018N01144726EA0233502360000010
B1319095007044N01144818EA0234002360000012
B1319215006948N01144840EA0235202370000014
B1319335006838N01144832EA0236302380000012
B1319455006742N01144854EA0237702400000018
B1319575006641N01144866EA0238802410000014
B1320095006540N01144865EA0240502420000010
B1320215006457N01144904EA0242202440000010
B1320335006389N01144969EA0243902460000008
B1320455006303N01145016EA0245602470000010
B1320575006200N01145025EA0247102490000008
B1321095006098N01144853EA0247902500000012
B1321215006143N01144542EA0247902500000010
B1321335006315N01144472EA0248202500000014
B1321455006380N01144603EA0249902520000008
B1321575006416N01144732EA0251102530000010
B1322095006441N01144867EA0253102550000010
B1322215006464N01145005EA0254202560000010
B1322335006488N01145153EA0255402570000014
B1322455006495N01145308EA0256002580000008
B1322575006461N01145448EA0256802590000010
B1323095006435N01145593EA0257402590000010
B1323215006413N01145736EA0258002600000012
B1323335006372N01145863EA0258502610000010
B1323455006268N01145879EA0259102610000010
B1323575006147N01145861EA0259102610000010
B1324095006023N01145845EA0259402610000014
B1324215005913N01145898EA0259402610000012
B1324335005803N01145968EA0259402610000010
B1324455005725N01146084EA0259402610000012
B1324575005807N01146233EA0259402610000012
B1325095005991N01146203EA0259402610000012
B1325215006166N01146029EA0260002620000010
B1325335006325N01145812EA0260302620000012
B1325455006457N01145530EA0260602620000012
B1325575006548N01145214EA0261102630000012
B1326095006576N01144872EA0261702640000010
B1326215006527N01144570EA0262602650000010
B1326335006395N01144465EA0263202650000012
B1326455006293N01144538EA0263802660000012
B1326575006250N01144691EA0264602660000012
B1327095006216N01144858EA0265502670000012
B1327215006200N01145030EA0266402680000012
B1327335006210N01145206EA0267002690000010
B1327455006274N01145370EA0267502700000014
B1327575006427N01145444EA0267802700000010
B1328095006612N01145325EA0267802700000014
B1328215006725N01145039EA0267802700000014
B1328335006716N01144723EA0267502700000012
B1328455006615N01144500EA0267202690000012
B1328575006489N01144467EA0267202690000010
B1329095006409N01144567EA0267202690000010
B1329215006399N01144732EA0267502690000008
B1329335006437N01144904EA0267502700000010
B1329455006484N01145077EA0267502700000012
B1329575006583N01145222EA0268102700000012
B1330095006720N01145333EA0268102700000010
B1330215006832N01145460EA0268102700000010
B1330335006977N01145546EA0268102700000012
B1330455007167N01145511EA0267802700000020
B1330575007352N01145316EA0267502690000014
B1331095007436N01144993EA0267002690000012
B1331215007394N01144701EA0266102680000014
B1331335007289N01144500EA0265202670000012
B1331455007158N01144395EA0264002660000014
B1331575007021N01144360EA0263202650000014
B1332095006885N01144365EA0262302640000012
B1332215006763N01144428EA0261702640000014
B1332335006634N01144502EA0260902630000014
B1332455006496N01144540EA0261402630000014
B1332575006370N01144593EA0261402630000012
B1333095006232N01144619EA0261102630000014
B1333215006097N01144629EA0261702630000012
B1333335005958N01144626EA0262002640000014
B1333455005818N01144601EA0262302640000012
B1333575005683N01144561EA0262602640000012
B1334095005553N01144514EA0262602640000012
B1334215005427N01144461EA0262602640000010
B1334335005300N01144411EA0262602640000010
B1334455005171N01144350EA0262602640000012
B1334575005042N01144294EA0262302640000010
B1335095004912N01144226EA0262002640000010
B1335215004780N01144155EA0261702630000010
B1335335004650N01144087EA0261402630000010
B1335455004516N01144020EA0261102630000022
B1335575004385N01143955EA0261102630000012
B1336095004256N01143897EA0261102630033012
B1336215004122N01143812EA0260902630000012
B1336335003987N01143729EA0261102630000010
B1336455003866N01143741EA0261402630000010
B1336575003773N01143817EA0261702630000012
B1337095003699N01143921EA0261702630000012
B1337215003633N01144034EA0261702630000010
B1337335003538N01144107EA0261402630000016
B1337455003418N01144134EA0261402630000008
B1337575003298N01144144EA0261402630000010
B1338095003180N01144140EA0261102630000012
B1338215003062N01144142EA0260902630000012
B1338335002934N01144111EA0260602620000010
B1338455002802N01144034EA0260302620033012
B1338575002675N01143856EA0259702620000010
B1339095002593N01143567EA0259402610000010
B1339215002603N01143226EA0258802610000012
B1339335002742N01142977EA0258002600000010
B1339455002898N01142969EA0257102590000012
B1339575002983N01143086EA0256202580000012
B1340095003007N01143221EA0255702580000010
B1340215003005N01143357EA0254802570000014
B1340335003006N01143501EA0254502560000012
B1340455003001N01143633EA0254502560000012
B1340575002947N01143735EA0253902560000012
B1341095002879N01143824EA0253702550000012
B1341215002813N01143911EA0253102550000012
B1341335002755N01144005EA0252802550000020
B1341455002703N01144104EA0252802550000010
B1341575002657N01144207EA0252802550000012
B1342095002619N01144314EA0253102550000012
B1342215002588N01144424EA0253402550000010
B1342335002557N01144532EA0253902550000012
B1342465002528N01144652EA0253902560000010
B1342575002506N01144757EA0254502560000012
B1343095002487N01144875EA0255102570000010
B1343215002475N01144997EA0255402570000010
B1343335002463N01145123EA0255702570000012
B1343455002461N01145259EA0256002580000010
B1343575002468N01145398EA0256002580000014
B1344095002475N01145538EA0256202580000012
B1344215002491N01145682EA0256002580000012
B1344335002511N01145829EA0256002580000012
B1344455002517N01145977EA0256002570000014
B1344575002526N01146127EA0255402570000012
B1345095002540N01146278EA0254502560000014
B1345215002546N01146427EA0253902560000014
B1345335002445N01146451EA0252802550033014
B1345455002396N01146158EA0251602530000016
B1345575002501N01145843EA0251402530000010
B1346095002624N01145541EA0251402530000012
B1346215002751N01145250EA0251602530000010
B1346335002876N01144947EA0251402530000010
B1346455002993N01144637EA0251402530000014
B1346575003127N01144354EA0251402530000014
B1347095003284N01144120EA0251102530000010
B1347215003452N01143921EA0251102530000010
B1347335003624N01143739EA0251102530000026
B1347455003801N01143610EA0251402530000016
B1347575003969N01143590EA0252202540000012
B1348095004104N01143650EA0252502550000014
B1348215004195N01143759EA0253402550000010
B1348335004155N01143868EA0253102550000008
B1348455004033N01143753EA0253702550033022
B1348575004043N01143431EA0253702550000016
B1349095004214N01143293EA0254202560000010
B1349215004301N01143398EA0255402570000010
B1349335004216N01143447EA0256202580000030
B1349455004130N01143209EA0256802580000012
B1349575004220N01142900EA0257402590000014
B1350095004390N01142841EA0258002600000028
B1350215004407N01142962EA0258802610000032
B1350335004298N01142820EA0259702610033012
B1350455004404N01142539EA0260602620000020
B1350575004519N01142608EA0261102630000010
B1351095004426N01142628EA0261702630033010
B1351215004393N01142331EA0262302640033012
B1351335004559N01142186EA0262602640000010
B1351455004591N01142308EA0262302640000010
B1351575004470N01142214EA0262902640033010
B1352095004500N01141879EA0262602640000014
B1352215004676N01141776EA0262002640000014
B1352335004716N01141907EA0261702630000016
B1352455004585N01141891EA0260602620000016
B1352575004434N01141799EA0260002620000012
B1353095004282N01141702EA0259702620000014
B1353215004122N01141584EA0258002600000018
B1353335003958N01141493EA0257402590000016
B1353455003792N01141429EA0255402580000016
B1353575003611N01141351EA0253402550000018
B1354095003423N01141263EA0251602540000018
B1354215003242N01141179EA0251102530000014
B1354335003055N01141079EA0249402520033016
B1354455002874N01140989EA0249402520000020
B1354575002704N01140927EA0249402520000012
B1355095002549N01140869EA0248802510000014
B1355215002397N01140810EA0248202500000012
B1355335002245N01140767EA0247602500000012
B1355455002095N01140725EA0247602500000012
B1355575001952N01140698EA0247602500000010
B1356095001814N01140678EA0247902500000014
B1356215001683N01140670EA0248502500000010
B1356335001563N01140689EA0249102510000010
B1356455001442N01140673EA0249602520033010
B1356575001380N01140386EA0250502520000014
B1357095001522N01140164EA0251102530000014
B1357215001583N01140269EA0251602540000018
B1357335001462N01140183EA0252502540033022
B1357455001492N01139849EA0252802550033014
B1357575001642N01139818EA0253702550000016
B1358095001577N01139883EA0253902560000012
B1358215001488N01139612EA0254502560000014
B1358335001604N01139329EA0254802560000010
B1358455001714N01139383EA0255102570000016
B1358575001610N01139387EA0255702570033014
B1359095001548N01139070EA0255402570000014
B1359215001694N01138854EA0255102570000010
B1359335001760N01138960EA0254802570000020
B1359455001726N01139100EA0255102570000014
B1359575001671N01139229EA0255402570000016
B1400095001610N01139348EA0256202580000012
B1400215001539N01139457EA0256802590000012
B1400335001466N01139544EA0258002600000010
B1400455001392N01139627EA0258502600000012
B1400575001322N01139720EA0259102610000012
B1401095001246N01139805EA0260302620000010
B1401215001150N01139862EA0261402630000012
B1401335001040N01139895EA0262302640000010
B1401455000919N01139905EA0263202650000012
B1401575000807N01139931EA0264302660000010
B1402095000684N01139929EA0265202670000008
B1402215000556N01139909EA0266102680000010
B1402335000513N01140008EA0266702680000010
B1402455000615N01140100EA0267802690000010
B1402575000747N01140159EA0268702700000010
B1403095000842N01140269EA0269902710000016
B1403215000869N01140406EA0270502720000012
B1403335000778N01140464EA0271302730000012
B1403455000647N01140391EA0272202740033018
B1403575000516N01140334EA0273402750000012
B1404095000406N01140364EA0274302760000010
B1404215000353N01140481EA0275102770000012
B1404335000378N01140634EA0276002770000010
B1404455000493N01140741EA0276902780000010
B1404575000655N01140765EA0278102790033014
B1405095000818N01140794EA0279002800033010
B1405215000987N01140811EA0279602810033022
B1405335001162N01140813EA0280102810000040
B1405455001342N01140796EA0280102810000014
B1405575001511N01140632EA0280402810000014
B1406095001629N01140368EA0280402810000012
B1406215001673N01140057EA0280102810000012
B1406335001610N01139781EA0279902810000012
B1406455001484N01139635EA0279902810000010
B1406575001348N01139567EA0279902810000010
B1407095001221N01139528EA0279302800000010
B1407215001099N01139518EA0279002800000010
B1407335000975N01139507EA0278702800000010
B1407455000855N01139521EA0278402790000010
B1407575000740N01139556EA0278102790000010
B1408095000633N01139607EA0277802790000012
B1408215000532N01139663EA0277802790000010
B1408335000438N01139724EA0278102790000010
B1408455000331N01139763EA0278702790000010
B1408575000224N01139802EA0279002800000010
B1409095000234N01139927EA0279602800000010
B1409215000369N01139965EA0279902810000014
B1409335000528N01139800EA0279902810000012
B1409455000584N01139473EA0279602800000010
B1409575000498N01139184EA0278402790000010
B1410095000355N01139067EA0277502780000016
B1410215000239N01139087EA0276902780000014
B1410335000192N01139189EA0276002770000012
B1410455000266N01139293EA0275402770000012
B1410575000387N01139372EA0274602760000014
B1411095000518N01139448EA0274302760033020
B1411215000662N01139533EA0271602730033014
B1411335000867N01139685EA0268102690033032
B1411455001079N01139836EA0268402700033024
B1411575001283N01139991EA0269002700000020
B1412095001479N01140148EA0268702700000024
B1412215001689N01140327EA0266102670033024
B1412335001906N01140544EA0265502670033020
B1412455002123N01140764EA0264302660033022
B1412575002337N01140985EA0263502650033024
B1413095002558N01141180EA0261402630033022
B1413215002776N01141383EA0260602620033024
B1413335002999N01141559EA0259402610033032
B1413455003230N01141704EA0259102600000024
B1413575003465N01141828EA0257702590033022
B1414095003698N01141955EA0257702590000022
B1414215003936N01142070EA0256002580000024
B1414335004175N01142193EA0256002580033022
B1414455004407N01142326EA0256502580000028
B1414575004633N01142483EA0256802580000022
B1415095004848N01142643EA0258302600033022
B1415215005062N01142814EA0257102590033020
B1415335005273N01143010EA0256502580033026
B1415455005477N01143207EA0255102570033026
B1415575005673N01143407EA0254802570033034
B1416095005864N01143613EA0254202560033020
B1416215006068N01143827EA0252202540033030
B1416335006297N01144072EA0249402520033032
B1416455006535N01144321EA0248502510033032
B1416575006766N01144568EA0248202500033028
B1417095006986N01144826EA0247902500000038
B1417215007212N01145073EA0243402460033028
B1417335007448N01145280EA0245402480033022
B1417455007684N01145499EA0241702440000028
B1417575007909N01145722EA0242502450000022
B1418095008124N01145912EA0241102430033022
B1418215008336N01146104EA0236802390033028
B1418335008551N01146333EA0236302380000024
B1418455008751N01146536EA0236302370033068
B1418575008950N01146715EA0232602350033046
B1419095009134N01146915EA0230902340000028
B1419215009305N01147114EA0228102310033026
B1419335009494N01147326EA0225602280033026
B1419455009670N01147539EA0224802270033026
B1419575009822N01147728EA0225302280033022
B1420095009971N01147917EA0223902270033022
B1420215010118N01148100EA0223402260033020
B1420335010274N01148282EA0221702240033028
B1420455010436N01148471EA0220302230033024
B1420575010596N01148665EA0219802220033022
B1421095010769N01148867EA0218402210033022
B1421215010944N01149073EA0218102210033020
B1421335011106N01149270EA0217502200033026
B1421455011258N01149472EA0216202190000028
B1421575011399N01149677EA0215602190000020
B1422095011506N01149902EA0214202170000028
B1422215011600N01150130EA0212002150000018
B1422335011683N01150374EA0209502130000022
B1422455011758N01150601EA0207902110000018
B1422575011837N01150842EA0205202090000026
B1423095011911N01151074EA0204902080000024
B1423215011998N01151276EA0203302060000018
B1423335012084N01151468EA0201602050000016
B1423455012184N01151652EA0200302030000018
B1423575012275N01151837EA0199702030000016
B1424095012350N01152037EA0198302020000020
B1424215012419N01152243EA0198302020000020
B1424335012490N01152436EA0198102010000020
B1424455012571N01152633EA0197002000000022
B1424575012664N01152866EA0192901960033026
B1425095012767N01153143EA0189701930000024
B1425215012882N01153432EA0187301910000022
B1425335013001N01153717EA0184601890000034
B1425455013080N01154011EA0182401860000040
B1425575013120N01154300EA0180301840033034
B1426095013144N01154590EA0178401830000030
B1426215013190N01154882EA0177101810000030
B1426335013252N01155182EA0174701790000032
B1426455013302N01155490EA0173701780000032
B1426575013339N01155800EA0172901770000034
B1427095013380N01156100EA0173101770000032
B1427215013418N01156387EA0172901770000028
B1427335013454N01156665EA0171801760000028
B1427455013493N01156952EA0170501750000024
B1427575013529N01157224EA0169701740000024
B1428095013566N01157492EA0167601720000022
B1428215013603N01157756EA0166801710000026
B1428335013623N01158006EA0165001700000020
B1428455013634N01158267EA0163401680000026
B1428575013608N01158520EA0160801660033020
B1429095013454N01158663EA0155501610033026
B1429215013150N01158525EA0151101570000028
B1429335012849N01158235EA0148801540033036
B1429455012589N01157820EA0145701510000030
B1429575012366N01157276EA0142601480033032
B1430095012126N01156742EA0142401480033030
B1430215011898N01156199EA0142101470033026
B1430335011696N01155648EA0140001460033032
B1430455011488N01155120EA0137201430033030
B1430575011283N01154601EA0134401400033032
B1431095011079N01154102EA0131401370033028
B1431215010888N01153580EA0128601350033030
B1431335010712N01153070EA0128101340033028
B1431455010528N01152584EA0127301330033022
B1431575010335N01152135EA0125301320033022
B1432095010133N01151684EA0123001290033030
B1432215009924N01151292EA0121301270033028
B1432335009697N01150924EA0119201250033026
B1432455009474N01150573EA0117201230033020
B1432575009243N01150285EA0116501220033024
B1433095009017N01150096EA0116201220033022
B1433215008783N01149906EA0115201210033020
B1433335008554N01149703EA0115001210033020
B1433455008331N01149488EA0114701210000016
B1433575008108N01149257EA0114001200033020
B1434095007890N01149028EA0113501190033028
B1434215007682N01148802EA0113501190033024
B1434335007495N01148563EA0113501190000036
B1434455007321N01148359EA0113201190000024
B1434575007155N01148162EA0112501180000026
B1435095006988N01147908EA0111001160000014
B1435215006891N01147466EA0109001150033018
B1435335006992N01146991EA0108301140033016
B1435455007219N01146725EA0108801150000014
B1435575007454N01146567EA0108501140000018
B1436095007700N01146448EA0108801140000022
B1436215007934N01146328EA0110001160000020
B1436335008151N01146258EA0109801160000034
B1436455008336N01146254EA0109001150000016
B1436575008503N01146299EA0107301130033026
B1437095008639N01146416EA0105301110033022
B1437215008744N01146557EA0104001100033022
B1437335008794N01146728EA0102601090033026
B1437455008845N01146913EA0101801080033022
B1437575008925N01147075EA0100301070033030
B1438095009021N01147196EA0101101080033024
B1438215009070N01147344EA0099901060033022
B1438335009007N01147505EA0097401040033024
B1438455008951N01147721EA0096401040033032
B1438575008941N01148003EA0093701000033068
B1439095008952N01148230EA0098401050000046
B1439215008932N01148401EA0097901040033044
B1439335008761N01148205EA0099401060033036
B1439455008839N01147753EA0099101050033046
B1439575009030N01147716EA0096901040000050
B1440095009141N01147895EA0097601040033040
B1440215009144N01148037EA0098901050000034
B1440335008993N01147986EA0095401020000042
B1440455008956N01147619EA0092000990033050
B1440575009058N01147668EA0085900930033052
B1441095009026N01147879EA0081300890033044
B1441215008948N01148069EA0079100870033038
B1441335008817N01148135EA0076700850033048
B1441455008678N01147819EA0072600800000036
B1441575008543N01147476EA0070700790000032
B1442095008406N01147115EA0068800760000048
B1442215008218N01146882EA0064300730033042
B1442335008051N01147024EA0059000680033036
B1442455008089N01147288EA0053400630033046
B1442575008174N01147549EA0049400580033050
B1443095008232N01147730EA0049200580033080
B1443215008272N01147859EA0049400580033078
B1443335008299N01147941EA0049400580033044
B1443455008312N01147974EA0049400580033068
B1443575008312N01147974EA0049200580033006
GFH0@J0HkO3Bq06F05F01I21IFoWCHJGJ8000000000005F02000000000000000000000000
G5F030000000000000000000000005F040000000000000000000000003F05G4`IFpKI8380
G00J01V002007820V000500V001F08491LK9J800hklg@dwk0m@w0500WFZ5OJ`FV02r36keb
GnAF0000J0292FK`HK200ARBQ2eUBh00000N04V0101F0BKd5I4l8G00htjc@n5@o00001F0F
G0P00092y0W88YTc0ARCQ2e`23qF1vTcB00003qF5c0k0Z8o24VXSuV0htrR@nLc1bFQxuVk0
G0F61bFAxuVm00F00bFAxuVk00000bFjxuFk00000bFIxuVk00000bFMxuVk00000bFUxuVk0
G0000bFjxuVk00000bFQxuVk00000bFMxuFk00000bF7xuFk00000bFAxuVk00000bFExukk0
G0000bFMxuVk00000bFjxuVk00000bFbxuVk00000bFExuFk00060bFExuFk00000bVMxuFk0
G0000bVIxuVk00000bVQxuVm00F40bVAxuVk00000bVAxuVk00F00bVMxuVm00F60bVQxuVk0
G0000bVMxuVk00060bVQxuVk00000bVbxuVk00060bVExuVk00000bVAxuVk00040bV7xuVm0
G0F00bVIxuVk00060bVIxuVk00000bVExuVk00000bVExuVk00040bVAxuVk00000bVYxuVk0
G0000bVExuVk00F00bVIxuVk00040bV7xuVk00000bVIxuVk00060bVExuVk00000bVIxuFk0
G0000bVExuFk00000bVUxuFm00F00bVMxuVk00000bVAxuVk00000bVExuFk00000bVExuFk0
G0000bVExuFk00000bVExuFk00000bVAxuFk00040bV7xuFk00060bVExuFk00000bVMxuFk0
G0000bVIxuFo00040bVExuFg00000bVMxuFk00060bVIxuFk00000bVExuFk00040bVQxu0k0
G0000bVAxuFk00060bVExuFk00000bVAxu0k00041bVMxuFk00001bVAxu0k00001bVMxuFk0
G0001bV7xuFk00001bV7xuFk00040bV7xuFk00060bVExuFk00000bVIxuFk00001bV7xuFk0
G0F01bV7xuFm00F01bV3xuVk00001bVAxuVk00F41bV7xuVk00061bVQxuFk00041bWAxuFk0
G0001bVExuFm00F60bVAxuVk00000bVAxuVk00000bV3xuVk00060bV7xuVk00F40bV3xuVk0
G0060bV7xuFk00040bVAxuFm00F60bV7xuVk00000bV7xuFk00000bV7xuFk00000bV7xuFk0
G0000bV7xuVk00000bVUxuFk00F00bVAxuFk00000bVAxuVk00000bVAxuVk00040bV7xuVk0
G0060bV7xuVk00000bVExuVk00040bVMxuVk00000bV7xuVk00000bVAxuVk00000bVIxuFk0
G0000bVIxuFk00000bVAxuFk00000bV7xuFk00000bVUxuFk00000bVIxuFk00000bVExuFk0
G0000bV7xu0k00000bV7xuFk00F00bVAxuFm00F00bVExuFk00000bV3xuFk00000bVMxuFk0
G0000bVAxuFk00060bVExuFk00000bVExuFk00040bVIxuFk00000bV3xuFk00F00bV7xuFk0
G0000bV7xuFk00000bV7xuFk00000bVIxuFk00040bVIxuFk00000bVMxuFk00000bVbxuFk0
G0000bVIxuFk00000bVAxuFk00000bVUxuFk00060bVYxu0k00041bVzxu0k00060bVIxuFk0
G0040bVUxuFk00000bVIxuFk00F00bVAxuFk00000bVAxuFm00F00bVQxuVk00040bV7xuFk0
G0060bVAxuVk00000bVExuVk00F40bVIxuFk00000bVQxuFk00000bVQxuFk00040bVMxuFm0
G0F00bVExuVk00000bFExuFk00000bFAxuFk00000bF7xuFk00000bFQxuFk00060bVQxuFk0
G0000bV7xuFk00000bVIxuFk00060bVAxuVk00000bVMxuFk00000bVUxuVm00F00bVIxuFk0
G0000bVYxuFk00000bVIxuFk00060bVAxuFk00041bVExuFk00F81bVExuFk00001bV7xuFk0
G0001bVAxuFk00061bVExuFk00041bVExuFk00001bVYxuFk00001bVIxuFk00001bVAxuFk0
G0061bVIxuFk00001bVAxuFk00001bVExuFk00041bVQxu0k00061bVAxu0k00041bV7xuFk0
G0061bV7xu0k00001bVIxuFk00001bVAxu0k00001bV7xu0k00001bV7xuFk00001bVExu0k0
G0001bVAxu0k00001bV7xu0k00001bV7xuFk00001bV7xu0k00001bVAxu0k00001bVQxuFk0
G0001bVAxuFk00001bVAxuFk00001bV7xu0k00001bV7xuFk00001bVQxu0k00001bVMxu0k0
G0001bVIxu0k00000bV7xuFk00060bVExuFk00000bV7xuFk00000bVAxu0k00060bVIxuFk0
G0000bVExu0k00040bVMxuFk00000bVAxuFk00000bVExuFk00000bVExuFk00000bVExuFk0
G0000bVAxu0k00001bVMxuFk00001bVExuFk00000bV7xuFk00001bVExuFk00001bVIxuFk0
G0000bVExuFk00000bVfxuFk00000bVUxuFk00001bVQxuFm00F41bVIxu0k00F60bVIxuFm0
G0F40bV7xuFk00F60bV7xuFk00000bV7xu0k00000bVExuFk00000bVAxu0k00000bVAxu0k0
G0000bV7xuFk00040bVAxuFk00000bVQxu0k00000bVjxu0k00060bVIxuFk00000bVIxuFk0
G0000bVQxuFk00040bVAxuFk00061bVIxu0k00000bVUxuFk00000bVExuFk00041bVMxuVk0
G0001bVIxuFk00061bVExuFk00041bVExuFk00001bVExuFk00061bV7xu0k00041bVExu0k0
G0061bVIxu0k00001bVQxu0k00001bVQxuFk00001bVExu0k00001bVIxu0k00001bVAxu0k0
G0001bVAxu0k00001bVIxtkk00001bVMxu0k00001bVExu0k00060bVAxu0k00040bVExu0k0
G0000bVExu0k00000bVAxu0k00000bVAxu0k00000bVExuFk00000bV7xu0k00000bVAxu0k0
G0000bVAxu0k00000bVExu0k00000bVExu0k00F01bVExu0k00000bVAxu0k00060bVExu0k0
G0000bVAxu0m00F00bVExu0k00000bVExu0k00060bV7xu0k00000bVAxu0k00000bVExu0k0
G0001bVIxu0k00000bVbxu0k00000bVExuFk00001bVAxu0k00001bVMxu0k00041bVAxu0k0
G0001bV7xu0k00040bV7xu0k00001bVQxu0k00061bVUxu0k00001bVMxu0k00000bVAxu0k0
G0000bV7xu0k00040bVExu0k00060bVUxu0k00040bVMxu0k00060bVUxuFk00000bVMxuFk0
G0000bVIxuFk00000bVAxu0k00000bVIxu0k00001bVIxu0k00000bVExu0k00000bVMxu0k0
G0000bW7xu0k00000bVYxu0k00000bVQxu0k00040bVIxu0k00001bVnxu0k00001bVjxu0k0
G0001bVzxu0k00001bVYxu0k00041bVMxu0k00061bVIxu0k00001bVAxu0k00001bVMxuFk0
G0001bVAxuFk00001bVAxuFk00001bVAxu0k00001bVAxu0m00F61bVExu0k00F41bVUxu0k0
G0001bVnxu0k00001bVMxu0k00001bVIxuFk00001bVIxu0k00001bVIxu0k00001bVvxu0k0
G0001bVfxu0k00001bVUxu0k00001bVIxu0m00F01bV7xu0k00001bV7xu0k00001bVIxuFk0
G0001bVMxu0k00001bVIxu0k00001bVIxu0k00001bVIxu0k00001bVAxu0k00F01bVIxu0k0
G0061bVIxu0k00001bVAxu0k00001bVYxu0k00001bVrxu0k00001bVnxu0k00001bVQxu0k0
G0001bVbxu0k00001bVAxu0k00001bVIxu0k00001bVMxu0k00001bVExu0k00001bVUxu0k0
G0001bVbxuFk00001bVQxu0k00001bVMxuFk00041bVIxuFk00001bVQxuFk00001bVQxu0k0
G0001bVMxuFk00001bV7xuFk00001bV7xu0k00001bVExuFk00F61bVvxuFk00041bVzxuFk0
G0001bW3xu0k00001bVbxu0k00001bVYxu0k00F01bVMxu0m00F01bVMxu0k00001bVMxuFm0
G0F01bVYxu0k00001bVUxu0k00001bVQxu0m00F61bVMxu0k00041bWQxu0k00001bWnxu0k0
G0001bVQxu0k00001bVQxu0k00001bVQxu0k00001bVfxu0k00F01bVzxu0m00F01bVvxu0k0
G0001bVMxu0k00001bVUxu0k00F01bVzxu0k00001bVfxu0k00001bVYxu0m00F01bVfxu0k0
G0F41bVQxu0k00001bVQxu0k00061bVExu0k00001bVExu0k00041bVMxu0k00001bVMxu0k0
G0001bVAxu0k00061bVExu0k00001bVQxu0k00001bVMxu0k00001bVYxu0m00F41bVQxu0k0
G0001bVQxu0k00061bWExu0k00001bVYxu0k00F01bVExu0m00F01bVbxu0k00041bVQxu0k0
G0061bVMxu0k00001bVUxuFk00001bVYxuFk00001bVvxu0k00001bVMxu0k00001bVIxu0k0
G0001bVIxu0k00001bVExu0k00001bVUxu0k00001bVExu0k00001bVMxu0k00001bVrxtkk0
G0001bVUxu0k00001bVIxu0k00001bVUxu0k00001bVMxu0k00001bVbxu0k00001bVQxu0k0
G0001bVQxu0k00001bVQxu0k00001bVIxu0k00001bVYxtkk00001bVIxu0k00001bVAxu0k0
G0001bVIxtkm00F61bVQxu0k00001bVMxu0k00001bXbxu0k00F01bVYxu0k00041bVrxu0k0
G0001bVUxu0k00061bVMxu0m00F01bVYxu0k00F01bVIxu0m00F41bVMxu0k00F01bVfxu0m0
G0F61bVbxu0k00001bVvxu0k00001bVYxu0k00001bW3xu0k00FB1bXAxtkm010o1bVzxtkm0
G2FF1bWAxtkm01041bVbxtkm02FB1bVvxtVm01k81bVQxtVm02kB1bWAxtFm040F1bVfxtFm0
G2la1bWMxtFm032@1bWfxtFm02m@1bWbxtFm03me1bWN010lWzTN0V0siVOsCzTJBV0sdVOsA
GzTJBV0kZVOsZzTJBV0gIVOsXzTJBV0ZIVOsvzTJBV0VFVOsczTJBV0VKVOskzTJBV0RIVOsm
GzTJBV0VLVOsnzTJBV0FQVOt3zTJBV0RRVOszzTJBV0gWVOt3zTJBV0gUVOt1zTFBV0cQVOsh
GzTJBV0J@VOsIzTFB00000OwNzTJB00400OwHzTFB00000OwPzTFB00000OwAzTFB00000OwP
GzTJB0001VOwAzTJB00000Ow5zTJB0001VOsBzTJB00000Ow8zTJB00000OwFzTFB00000OwM
GzTFB00010OwGzTFB00000OwJzTFB0001VOwGzTFBV0410OwgzTFB00400Ow@zTJB00010OwR
GzTJB00400OwFzTFB00000OwIzTFB00400OwFzTFB00000Ow@zTJBV0400Ow6zTJB0041VOwF
GzTFBV0400OwIzTFB00000OwUzTJB00400OwMzTJB00000OwQzTJB00000OwJzTJB00000OwE
GzTFB00010OwCzTJB0001VOw8zTJB00000Ow9zTJB00000OwIzTJB00000Ow7zTJBV0400OwE
GzTFB00000OwCzTJB00000OwKzTFB00000Ow@zTJB00000Ow9zTJB00400OwDzTJB00400Ow8
GzTJB00000OwFzTJB00000OwBzTJBV0400Ow@zTJB00000Ow7zTJB00000OwAzTFB00000OwB
GzTFB00000OwCzTJB0001VOwDzTJB00000Ow9zTJB00010Ow8zTJB00000Ow5zTJB00000Ow@
GzTJB00000Ow9zTJB00010OwCzTJB0001VOwGzTJB00000OwFzTJB00000Ow7zTJB00000Ow8
GzTFB00000OwBzTJB00000Ow8zTJB00400OwDzTJB00000OwIzTJB0043VOwRzTFB00B6VOwV
GzTJB0089VOwKzTJB00000OwuzTJB00410OwEzTJBV0400OwDzTJB00000OwGzTFBV0400OwB
GzTFB00000OwAzTFB00000Ow8zTFB0041VOw@zTJBV0410OwEzTJB00000OwBzTJB00000OwG
GzTJB0041VOwKzTFB00000OwDzTJBV0400OwJzTFB00000OwAzTFB00400OwEzTJB00000OwB
GzTFB00000OwEzTJBV0400Ow6zTJBV0400Ow5zTFB00000Os2zTFB00000Os3zTFB00400Os3
GzTJBV0400Os5zTJB00000Os6zTJB00400Os2zTJBV0400Os9zTJB00000OwFzTJB00000OwE
GzTJB00000Ow9zTJB00000OsCzTJB00000OsUzTJB00000OsIzTJB00000OsCzTJB00000OsF
GzTNB00400OsAzTNB00400OsMzTNBV0400Os@zTNB0001VOs@zTJBV0410Ow6zTJB00000OwS
GzTNB00410Os5zTNBV041VOwCzTNB00010Os8zTJB00400Ow4zTJB00oa0Ox6zT4B04340OwU
GzRNB08So0PJRzPwB09wK0PgLzOcB0@gIVPwNzNZB0A9vVQBSzMJB0@MmVQVOzLBB26tJVQkO
GzKVBX0r4VQsQzJRBX@OxVR8OzI0BVCawVRRQzH0BVCL3VRgRzG0BVAJwVRwSzFJBVAVvVS8P
GzF8BX6JsVS8EzH0BX4eLVRkfzGwBVAQgVRllzHcBV5ok0R`VzI8B00dx0RTEzIgB011k0RKf
GzJBBV0650RDDzIcBV1L@0RLkzI0BV21g0RTizHJBV3hG0RerzGZBV5sm0RqtzFsBV6R@0Ryt
GzFBBV6JJ0S@qzEBBV5wIVSPtzDNB00Fy0SagzCNB06oW0SqtzBcB08490T2tzAwB06BT0T@t
GzAJBV10p0THqz@cBV3RZ0TTrz9kBV6FSVTipz8oBV7a7VTupz7kBX7wiVU@rz6wBX8VfVUPl
Gz64BV8UwVUasz5NBV8nFVUmtz4oBV6KVVUsnz4oBV0JL0Us@z4cB080PVUw6z4gB0AQrVUw6
Gz4sB25yTVUs6z5VBX6BZVUk6z68BV3V80UZ6z6ZBV10V0UR8z74B01NZ0UJ6z7gB02Rm0UB7
Gz8ZB05O50Tw7z9BB06tG0To9z9oB08Rs0Tg7z@RB09JZ0TV8zAFB07Zs0TJ8zAkB01ld0TB@
GzBZBV2GV0T0@zBVBV3op0T0OzD4BV4gK0ScvzCgBV6d30SiMzCFBV7NJVSqnzC8BV95KVSuj
GzBoBV8p3VSylzBRBV84oVT2jzB0BV6gYVT@azAgBV6VPVTDZzAJBV7t6VTLLz@sBV6BCVTPR
Gz@NBV1Ni0TXXz9oB02Fo0Teiz9FBV2JH0TqTz8RBV6W@VU2gz84BV6t5VU@Wz7VBV7VwVUHW
Gz6oBV7FhVUPJz6FBV7ZuVUaWz5VBV7lBVUiez4kBV7GEVUydz3sBV6x5ZF@Mz3ZBV6OUZFBO
Gz3BBV65KZFJ8z2cBV65BZFR6z2BBV4geZFZ5z1oBV3wNZFc5z1cBV4FLZFg5z1VBV50hZFk6
Gz1ZBV69KZFg5z1cBV4FSZFg7z1oB03kj4Fg5z1oB07sE4Fc5z1kB08wDZFg6z1VB09gTZFk6
Gz1BB09wTZFo5z10B064c4Fs6z0gBV44uZFw6z0gBX25eZFw5z0gB2@8hZFw7z0sB0@NbZFs5
Gz1BB0@FK4Fo6z1ZB0@kR4Fg6z1oB0ABc4Fc7z28B0A0g4FZ8z2NB0@Va4FV7z2oB0@RK4FN9
Gz3NB0@NK4FF8z3wB09VG4F86z4VB08sJ0Uw8z50B07sN0Uo6z5wB08JE0Uc6z6wB0@Vq0UJ8
Gz7FB09we0UF7z7ZC08ZX0UB7z7gA07Re0UB6z7oB05oi0U86z7cB06gm0UB7z7JB05ZL0UF5
Gz78B05RI0UJ6z6oB050@0EN5z6ZB03FI0UR5z6NBV5GKVEV5z6JBX2pvVEV6z6BB29d3VEZ6
Gz60B04g50Uc6z5sC00JR0Uc6z5cA00ZP0Ug6z5VB00gP0Uk5z5RB00VN0Uk5z5JB00ZV0Uk7
Gz5FB00BQ0Uo7z58B000J0Uo6z50B00JP0Us5z4sBV0wA0Es6z4kBV1o60Es5z4gCV1V80Es6
Gz4cAV0kE0Ew5z4VBV0ZF0Ew5z4RBV0JJ4006z4JBV14F4005z4FCV3cLZ045z48AV4F`Z044
Gz48BV4giZ045z48BV3wRZF45z48CV5NfZF44z48AV4saZ045z4BBV4NTZF45z4ZBV5s`ZF06
Gz4sBV7FZVEw8z54CV7keVUs6z5NAV5oCVUk7z5oCV7RVVEg@z6JAV6R2VUZ7z6wCV7JH0ER8
Gz7NAV5Ni0EJ8z80CV5ko0E89z8gAV50s0Dw8z9BCV44m0Do8z9sAV3Bb0DcAz@cBV3JW0DVA
GzANBV40Z0DJ9zBBBV4of0D49zC0BV4Bi0Cs8zCoBV4Zn0Cg9zDoBV6560CR9zEkCV68q0CF9
GzFkAV7130Bw9zGZBV5pM0Bo9zHNBV5hT0BZ@zIFBV5TA0BNAzINBV3y@0BN@zIsBV36M0BFB
GzJ0BV2Hr0BB9zJ4CV0P`0BBBzJBAV5g`0R8FzJNB20JfVB8CzJBB059r0BB9zJBC01eB0B8@
GzJNAV09w0B89zJJCV0mP0B8HzJsAV0mb0B0AzK0BV6sdVB0@zJwC04ltVR0CzJkAV99VVR0B
GzKBB08DHVQwAzKNB00us0As@zK0BV2qB0B0EzKJBX3s4VQsCzKgB07FQ0QoBzKkB03HV0QoB
GzKwB02mY0AkBzLRC032c0AgDzLwA05Ki0QZLzN0C09230AHRzLwA065z0QXkzLNB04H80Aek
GzKgB03mO0AqjzKJBV1HW0AuczIkBV3P@0BHgzHoCV6K90RTmzH8BV8J9VBejzGFAV7VFVBqn
GzFcCV7yiVC2kzF8A22toVC@jzEoB07gcVSDWzE8BV7i6VCPazDJB23agVCXZzDBB08ooVSaH
GzD8BV7S7VSaJzCoC20MkVCiIzCkA0@iqVSiEzCVB074J0SmgzCNB04Jj0CmqzCFB03sk0Cqo
GzCBB030i0CqozC8C034g0CqlzC8A030Y0CqpzC8B03cc0CqpzC8B02gd0CqozC0B01ce0Cuo
GzC0B00sY0CunzBwB00cd0CuqzBgBV0oe0CypzBVCV10d0D2ozB4AV0gb0D6qzAgBV0cV0DDr
GzANBV1BV0DHqz@wBV1NU0DLrz@VBV0BR0DTpz@4B00BT0Darz9cB000S0Disz98CV0sN0Dqt
Gz8kAV0oJ0DtKz8sBV18H0DsAz8sB00kT0Ds6z8oB00oX0Ds6z8kB018Z0Ds5z8ZC01F`0Dw6
Gz8JB014T0E06z84A00cP0E47z7kB01ZR0E87z7RB01cI0EF5z7BB01JE0EJ5z6sB01VJ0EN8
Gz6gB02FQ0ER6z6JB02F`0EV8z5wB01RK0EZ@z5cC02FC0Eg5z5FA00kF0Ek5z4sBV0c4VEs4
Gz4ZBV1c8VEw5z4JBV2BDZ005z40BV1k14045z3cCV1Z740B7z3FAV1J640F4z2oB000A40N5
Gz2VB05ZJZ0R5z2NB0@rQZ0V5z2ZB09OwZFR6z2oB010b40N7z3NBV4Nb40F7z2wBV49740J9
Gz2VBV2RJ40R6z2NCV1VC40V7z2FAV1ZI40V6z28BV10R40Z6z20BV10Z40Z6z1gBV0oF40g5
Gz1RB00FN40g7z1JB00cS40k5z18B00BQ40o4z0sB004X40s5z0kB00JQ40w5z0VCV0ZM40w5
Gz0RAV0gL4105z0BBV2gC414HyzwBV487Z18CyzcBV5ZTZ1B6yzJBV58OZ1F9yz4BV5FRZ1J6
GyykBV5gOZ1R7yyZBV50GZ1V5yyJBV5BEZ1Z6yy8BV4N241Z4yy0BV3kV41c7yxoBV24v41g5
GyxZBV0x841k5yxNB001B41k5yx4B01`J41s5ywwC045641s5ywgA05gl41w5ywRB064t4205
GywFB06x04247yvsB06K34287yvZB05l242F6yvFB060y42J5yuwB05ow42R5yuZB05ct42V6
GyuFC06gn42c5yu0A05cc42g4ytkB07cD42k6ytcB00JZ42k7ytVBV7RrZ2k6ytNBV89SZ2oF
Gyt0BV8WrZ2w7ysgBV8X9Z306ysBBV8L@Z387yrsBV82HZ3F9yrRBV7a8Z3J5yrFBV7@7Z3N5
Gyr0BV6xgZ3R4yqoBV6dEZ3V5yqcBV5kUZ3Z5yqNBV4o743c5yqBBV50343g4ypsBV4w643k5
GypcBV4JG43o6ypNBV0lG43s5ypBB05t243w6yowB0@`KZ406yokB09vcZ446yocB0@GVZ486
GyoVB01GI4485yoNBV2l744B6yoFBV05j44B6yo8B02ti44F6ynsB04SV44J6yngB04WU44N4
GynZB03hb44N5ynJB04lU44R5yn4B05GI44V5ymkB03lR44c6ymRBV4Bd44g6ymFBV6beZ4k6
Gym4B25h0Z4o5ylsB09cIZ4o5ylgB080f44s5ylVB07Vo44w5ylRB06S54505ylJB01dR4506
Gyl4BV60L4547ykoBV6s8Z586ykVBV60L45F9ykFBV6JB45J7yjsBV6J1Z5N5yjVBV5Bb45V5
Gyj8BV4G145c4yikBV5Nj45g5yiRBV6R945o4yiFBV6PgZ5s6yiFB22orZ5s5yiBB0@l6Z5s7
GyhoB04634604yhZB02H14645yh8B01a746B5ygsB01T@46F5ygcB01XJ46J7ygVB00TQ46N4
GygJBV2@B46R5ygBBV1eG46R5yg4BV1PE46V6yfwBV2`z46Z5yfoBV6VF46Z5yfoBV7ZHZ6Z5
GyfkBV7kFZ6Z7yfkBV6sp46Z6yfkBV6t646Z5yfkBV4to46Z6yfkB05@K46Z6yfkB0AVTZ6Z6
GyfcB0@yiZ6c5yfZB09zOZ6c6yfVB28FPZ6c6yfNB25gwZ6g6yfFB21lLZ6k5yf4BX34iZ6o5
GyewBV8GdZ6o6yeoBV6O946s6yecBV2iO46s6yeRBV2@b46w6yeFBV12g4706ye8B00ek4745
Gye0B042Z4787ydwB09`@4785ydwB0A`rZ787ydwB274TZ787ye0BX0ZwZ786ye4BV6MUZ746
Gye4BV7sWZ745ye4BV51Z4745ye0BV0e`4744ye0B02Pg4785ye0B02yh4786ydsB06DG4786
GydsB08`j4785ydsB071z4785ydsB095L4786ydwB0AsYZ78@ye0B0Ab3Z747ye8B25G3Z746
GyeJBX2cZZ707yeVBV6b9Z6w6yekBV8CdZ6s7yewBV8ZYZ6o7yf8BV8V546k6yfFBV7cz46k7
GyfRBV85@46g7yfJBV8ca46g7yfJBV7sp46g6yfNBV8cP46g7yfFBV8R@46g6yfBBV8g3Z6k7
Gyf8BV8kOZ6k6yf4BV8RcZ6k6yf4BV88jZ6k6yf4BV7spZ6k5yf4BV7wmZ6k5yf4BV84xZ6k6
Gyf8BV84sZ6k5yfBBV894Z6k5yfFBV8G7Z6g5yfJBV894Z6g5yfNBV8O3Z6gAyfNBV8C1Z6g6
GyfNBV84uZLg6yfRBV8OKZ6g6yfNBV8SIZ6g5yfJBV7ZB46g5yfFBV5pB46g6yfFBV4dc46g6
GyfFBV49l46g5yfJBV5x946g8yfJBV7VQ46g4yfJBV7V@46g5yfNBV7N4Z6g6yfRBV7N246g6
GyfVBV80UZ6c5yfZBV8GCZLc6yfgBV7ymZ6c5yfkBX58WZ6Z5yfsB20dKZ6Z6yg4B08jtZ6V5
GygFB09k8Z6R6ygRB05Kp46N6ygZB01X746N5ygkBV0@846J7ygoB006F46F6ygoBV0L446F6
GygwBV3Oa46F6yh0BV4GO46B6yh8BV49M46B6yhBBV3dT46B@yhBBV3GY46B5yhBBV2tb46B6
Gyh8BV2Of46B6yh4BV1xi46B5ygwBV1xg46B6ygwCV1ps46F5ygoAV1Od46F6yggBV1Cq46J5
GygcBV0lu46J5ygZBV0ly46J6ygVBV0@846N5ygVB00TA46N7ygRB00TB46N6ygVB012F46N6
GygVB01HI46N6ygVB00PJ46J7ygcB00aL46J6ygoB00uM46F7ygwB00PK46F7yhBBV6JN4LB7
GyhRBX34`Z648yhVB26ZvZ645yhVB27giZ646yhRB27wYZ645yhVB27ojZ645yhVB27JqZ647
GyhVB28NQZ647yhZB09reZ645yhZB0@Y7Z645yhZB0@mqZ64CyhVB0A61Z648yhJB0@VJZ686
GyhFB08Rw46B7yh4B05hh46B5yh8BV2Wh46B4yh0BV7dnZLBAyh0B20d2Z6B8ygsB0@i@Z6F5
GygcB05Sd46J5ygRBV5Jl46NEygJBV5QiZ6N6ygBB25cpZ6R7yg4B0@cvZ6VDyfsB015t46ZF
GyfgBV6qDZLZ6yfVB26cOZ6c@yfNB07C546g5yfFBV5oJ4Lg5yf8BX24dZLk6yf4B0@PGZ6k5
Gyf8B021u46k5yf0BV7`TZLk5yf4B21tEZ6k7yfBB0A1bZ6k7yfFB02X346g8yfVBV8BFZ6c8
GyfcBV9SRZ6c6yfgBV9WWZ6c7yg4BV@1qZ6V9ygBBV@GQZ6R8ygcBV@O0Z6N8yh4BVAKDZ6B9
GyhRBVAlNZ689yhZBVAKJZ647yhwBVAhZZL08yhwBVAKPZ60@yhwBV@cyZ606yi4BV9guZ5w7
GyiBBV9VvZ5s6yiJBV9VfZ5s6yiJBV9NeZ5s6yiJBV8wQZ5s5yiFBV8cJZ5s7yi8BV8B8Z5s5
Gyi0BV7VI45w5yhsBV7ZFZL05yhgBX3sUZ607yhZB08vTZ647yhRB03pd4689yhFBV7`LZL8A
GyhBB21tDZLB7yh0B09NUZ6B8ygwBV45146F6ygoBX5ZEZ6F7ygkB27FQZ6F5yggB06sq46J8
GygZBV6V44LJ7ygcBX3sxZ6J7yggB09ANZ6J5ygkB049e46J@yggBV2@B46J7ygcBV3T146J8
GygRBV3pr46N6ygJBV4Sh46R6yg4BV4`M46V5yfwBV4dI46V6yfoBV4OS46Z6yfZBV4lK46c5
GyfJBV60t46g6yf8BV6sW46k5yewBV7Z@46o6yegBV70P46s5yeVBV7g2Z6w4yeJBV80JZ705
GyeBBV2hY4705ydwB06OR4745ydkB08Fv4785ydVB05xi47B8ydNB01i947F6ydBBV5gu47J6
Gyd0BV8C9ZMN9yckBV8BtZ7R6ycZBV6sT47V5ycNBV3Kp47Z6ycBB01aO47Z5yc0B07Cf47c5
GybkB0@8N4Mg7ybZB0@BS4Mk5ybRB0@ZG4MoAybJB0@w247oJybJB0AFGZ7o7ybFB0@aZZ7o7
GybFB27N8Z7o6ybJB22krZ7o6ybNBX3wJZ7o6ybNBV7uHZ7o5ybNBV8W4Z7o5ybVBV7wbZ7k5
GybZBV7c@Z7k5ybcBV7kAZ7k5ybgBV7VD47g5ybkBV7BY47g5yboBV6gn47g6yboBV6Js47g5
GybkBV5sx47g5ybcBV6gb47g5ybZBV6gb47k5ybRB00dx47k5ybNB08Ra47o7ybNB09y`Z7o6
GybRB23W7Z7k5ybgBX5NWZ7g5ybsBV8xpZ7c8yc0BV7FJ47c7ycBBV2xa47Z6ycJB04dc47Z6
GycVB07`E47V7ycZB08CB4MV@yd8B091K4MJ7ydsB0BqN4M4FydoB0CHM4M8BydgB0BmQ478@
GydkB0BHS478ByeJB0C@n4LwByeRB0CbO4Lw@yegB0CbR4LsAyesB0CQS4LoByfJB0Cr34LgA
GyfVB0CfA4LcByfkB0Cyk4LZFyfoB0DTG46VByg8B0Dhw4LRAyg8B0D`z46RAygVB0Dtn46NB
GygVB0Dxv4LNAygNB0DX546NDygJB0D@S46NAyg0B0CTV4LVAygFB0CPf4LR@ygNB0CE44LNC
GyggB0Bn54LJCygkB0BI84LJGygsB0AzD4LF@yhJB0BnL4L8EyhwB0DMp4L0Fyi8B0Dvt4KwF
GyiBB0DUr4KsDyiFB2Ck245sIyjFB0DAr4KcDyioB0DnE4KkAyjcB0DnQ45VDyjRB0D7U45ZA
GyjkB0CTy4KRAykgB0CI04KBDykoB0CU`458BykoB0BYA4K4XylcB0BTn4JwMym0B0AY844sD
GymcB0@j74JgCynBB0ArJ4JVCynNB0A3K4JRCynFB09Xx4JVAynZB09Lx4JRAyngB09Dr4JN@
Gyo4B09mq4JFDyoNB0@@x4JBByoVB0@324J8AyooB0@r@4J4AyosB0@zD4J4@yp0B0@A54J0C
GypJB09Y@43wDypRB08rC43w@ypkB06jW43oDyqFB05vZ43g9yqoB05Eo43ZAyrBB04jY43R9
GyroB04zl43JCyrsB04fc43FBysFB05U@4389yscB05Q04348yswB06Hs42w9yt4B05it42w8
GytNB04j842s@ytNB04MD42s@ytRB04U142o@ytgB057542kAyucB05rd4HVCyvNB26RK42JB
GyvwB27BW42BAywZB27RS424Gyx4B24wa41sJyxZB22VW4GkGyy0B21VX41gEyyJB22sZ41ZE
GyysB23sg41RFyz8B238o41NFyzJB22Jq41JGyzFB22Zg41JFyzJB22NU41JDyzZB22FL41FD
GyzsB22RU41BBz04B22FF418Bz0ZB22JB410Az0kB22J840wCz1BB01Iu40s@z1ZB20g540kC
Gz2BBV1fx4Fc@z3RBV9eE4FJCz4VBVI2@Z04Dz54BXHoXVUsHz5oBXFHUVEgEz6ZBZCwVVUVF
Gz6cBZE0LVUVEz6gBZDFUVURCz7BBZBcbVUNFz7sBZC0FVUBEz8ZBZBo7VU0Fz9JBXBnnVToD
Gz@0BZAw@VTgEz@8BXA3yVTcDz@JBXAYaVTZAz@oBXB71VTVAzANBXBf3VTJEzAoBXC68VTBD
GzBJBXDCkVT4CzBoBXCxUVSw@zC0BXDRVVSsBzC4BVD@xVSsAzCJBVDeyVSo@zCNBVDMAVSo@
GzCRBVCzMVCo8zCcBVCzbVSk@zCkBVCf`VSgDzCkBVC3XVSgBzCkBVAjjVCgHzCoBV@vBVCgB
GzD0BV@Q5VCcCzDNBV@UyVCV7zDsBX66uVSR9zE4B26MQVSN8zDwB2DB@VCR7zE0B0DiTVCN9
GzDwB0EOrVCNAzDcB0DdsVCV@zDgB0C`6VCVGzDsB0AZ4VCR8zEJB0@Rh0SJCzEoB08Wp0SBA
GzF8B06aC0S8AzFVB03@f0S4CzFgB03Dt0S0AzG4B052X0RwEzFsB061t0S0BzGBB036J0RsA
GzGoBV3yW0RkBzH4BV3YN0RkFzHkBX0cP0RVXzGZB00jY0BoMzGgBV1Hf0RkLzGJBV@j4VRsH
GzGNB24v4VRoMzGwB0Aw`VBkOzGkB06yn0RkJzGRB00DD0BoGzHJBV9RnVBcKzIBBX2KjVRRO
GzJkB06Nl0R4PzKwBV23I0QoLzLVBV4uy0QgIzM8BV8C20QZNzNBBX8gwVAFHzNgBX8SMVABF
GzOBBX8`dVA0NzPNBVAndVPoKzQkBV@TD0PVHzSFB22N80PBMzTJB25J50OsOzTNB03ep0Osc
GzTJB02X10OsbzTJB01hH0OsLzTJB00oW0OsXzTNB00000Os3kB30kB30kB30kB30kB30kB30
GkB30kB30kB30kB30kB30kB30kB30kB30kB30kB30kB30kB30kB30k624KuP`igDXZqWOrqSc
Gku0eTZZI`rFiML7RSSQEjmCDtX@eB63Of6lXzzzz
